sensor_id;sensor_type;location;lat;lon;timestamp;temperature;humidity
60717;DHT22;46566;52.700;6.192;2024-01-27T00:01:38;4.30;99.90
60717;DHT22;46566;52.700;6.192;2024-01-27T00:04:04;4.20;99.90
60717;DHT22;46566;52.700;6.192;2024-01-27T00:06:29;4.20;99.90
60717;DHT22;46566;52.700;6.192;2024-01-27T00:08:55;4.20;99.90
60717;DHT22;46566;52.700;6.192;2024-01-27T00:11:21;4.20;99.90
60717;DHT22;46566;52.700;6.192;2024-01-27T00:13:49;4.20;99.90
60717;DHT22;46566;52.700;6.192;2024-01-27T00:16:14;4.10;99.90
60717;DHT22;46566;52.700;6.192;2024-01-27T00:18:40;4.10;99.90
60717;DHT22;46566;52.700;6.192;2024-01-27T00:21:06;4.10;99.90
60717;DHT22;46566;52.700;6.192;2024-01-27T00:23:32;4.10;99.90
60717;DHT22;46566;52.700;6.192;2024-01-27T00:25:58;4.10;99.90
60717;DHT22;46566;52.700;6.192;2024-01-27T00:28:24;4.10;99.90
60717;DHT22;46566;52.700;6.192;2024-01-27T00:30:50;4.10;99.90
60717;DHT22;46566;52.700;6.192;2024-01-27T00:33:16;4.10;99.90
60717;DHT22;46566;52.700;6.192;2024-01-27T00:35:42;4.10;99.90
60717;DHT22;46566;52.700;6.192;2024-01-27T00:38:07;4.00;99.90
60717;DHT22;46566;52.700;6.192;2024-01-27T00:40:34;4.00;99.90
60717;DHT22;46566;52.700;6.192;2024-01-27T00:42:59;3.90;99.90
60717;DHT22;46566;52.700;6.192;2024-01-27T00:45:25;3.90;99.90
60717;DHT22;46566;52.700;6.192;2024-01-27T00:47:53;3.90;99.90
60717;DHT22;46566;52.700;6.192;2024-01-27T00:50:18;3.90;99.90
60717;DHT22;46566;52.700;6.192;2024-01-27T00:52:44;3.80;99.90
60717;DHT22;46566;52.700;6.192;2024-01-27T00:55:10;3.80;99.90
60717;DHT22;46566;52.700;6.192;2024-01-27T00:57:36;3.70;99.90
60717;DHT22;46566;52.700;6.192;2024-01-27T01:00:07;3.60;99.90
60717;DHT22;46566;52.700;6.192;2024-01-27T01:02:33;3.60;99.90
60717;DHT22;46566;52.700;6.192;2024-01-27T01:04:59;3.50;99.90
60717;DHT22;46566;52.700;6.192;2024-01-27T01:07:25;3.50;99.90
60717;DHT22;46566;52.700;6.192;2024-01-27T01:09:51;3.50;99.90
60717;DHT22;46566;52.700;6.192;2024-01-27T01:12:16;3.50;99.90
60717;DHT22;46566;52.700;6.192;2024-01-27T01:14:43;3.50;99.90
60717;DHT22;46566;52.700;6.192;2024-01-27T01:17:09;3.50;99.90
60717;DHT22;46566;52.700;6.192;2024-01-27T01:19:36;3.40;99.90
60717;DHT22;46566;52.700;6.192;2024-01-27T01:22:02;3.30;99.90
60717;DHT22;46566;52.700;6.192;2024-01-27T01:24:29;3.30;99.90
60717;DHT22;46566;52.700;6.192;2024-01-27T01:26:54;3.40;99.90
60717;DHT22;46566;52.700;6.192;2024-01-27T01:29:20;3.40;99.90
60717;DHT22;46566;52.700;6.192;2024-01-27T01:31:47;3.40;99.90
60717;DHT22;46566;52.700;6.192;2024-01-27T01:34:13;3.40;99.90
60717;DHT22;46566;52.700;6.192;2024-01-27T01:36:39;3.40;99.90
60717;DHT22;46566;52.700;6.192;2024-01-27T01:39:05;3.40;99.90
60717;DHT22;46566;52.700;6.192;2024-01-27T01:41:31;3.50;99.90
60717;DHT22;46566;52.700;6.192;2024-01-27T01:43:57;3.40;99.90
60717;DHT22;46566;52.700;6.192;2024-01-27T01:46:23;3.40;99.90
60717;DHT22;46566;52.700;6.192;2024-01-27T01:48:49;3.40;99.90
60717;DHT22;46566;52.700;6.192;2024-01-27T01:51:18;3.40;99.90
60717;DHT22;46566;52.700;6.192;2024-01-27T01:53:45;3.40;99.90
60717;DHT22;46566;52.700;6.192;2024-01-27T01:56:16;3.40;99.90
60717;DHT22;46566;52.700;6.192;2024-01-27T01:58:42;3.40;99.90
60717;DHT22;46566;52.700;6.192;2024-01-27T02:01:08;3.40;99.90
60717;DHT22;46566;52.700;6.192;2024-01-27T02:03:34;3.40;99.90
60717;DHT22;46566;52.700;6.192;2024-01-27T02:06:00;3.30;99.90
60717;DHT22;46566;52.700;6.192;2024-01-27T02:08:26;3.30;99.90
60717;DHT22;46566;52.700;6.192;2024-01-27T02:10:51;3.30;99.90
60717;DHT22;46566;52.700;6.192;2024-01-27T02:13:21;3.30;99.90
60717;DHT22;46566;52.700;6.192;2024-01-27T02:15:48;3.30;99.90
60717;DHT22;46566;52.700;6.192;2024-01-27T02:18:14;3.30;99.90
60717;DHT22;46566;52.700;6.192;2024-01-27T02:20:40;3.20;99.90
60717;DHT22;46566;52.700;6.192;2024-01-27T02:23:06;3.20;99.90
60717;DHT22;46566;52.700;6.192;2024-01-27T02:25:32;3.10;99.90
60717;DHT22;46566;52.700;6.192;2024-01-27T02:27:58;3.20;99.90
60717;DHT22;46566;52.700;6.192;2024-01-27T02:30:24;3.10;99.90
60717;DHT22;46566;52.700;6.192;2024-01-27T02:32:52;3.10;99.90
60717;DHT22;46566;52.700;6.192;2024-01-27T02:35:17;3.00;99.90
60717;DHT22;46566;52.700;6.192;2024-01-27T02:37:43;3.00;99.90
60717;DHT22;46566;52.700;6.192;2024-01-27T02:40:09;3.00;99.90
60717;DHT22;46566;52.700;6.192;2024-01-27T02:42:36;2.90;99.90
60717;DHT22;46566;52.700;6.192;2024-01-27T02:45:03;2.90;99.90
60717;DHT22;46566;52.700;6.192;2024-01-27T02:47:28;2.90;99.90
60717;DHT22;46566;52.700;6.192;2024-01-27T02:49:54;2.90;99.90
60717;DHT22;46566;52.700;6.192;2024-01-27T02:52:20;2.80;99.90
60717;DHT22;46566;52.700;6.192;2024-01-27T02:54:46;2.90;99.90
60717;DHT22;46566;52.700;6.192;2024-01-27T02:57:12;2.80;99.90
60717;DHT22;46566;52.700;6.192;2024-01-27T02:59:38;2.90;99.90
60717;DHT22;46566;52.700;6.192;2024-01-27T03:02:07;2.80;99.90
60717;DHT22;46566;52.700;6.192;2024-01-27T03:04:33;2.90;99.90
60717;DHT22;46566;52.700;6.192;2024-01-27T03:06:59;2.90;99.90
60717;DHT22;46566;52.700;6.192;2024-01-27T03:09:25;2.90;99.90
60717;DHT22;46566;52.700;6.192;2024-01-27T03:11:51;2.80;99.90
60717;DHT22;46566;52.700;6.192;2024-01-27T03:14:16;2.80;99.90
60717;DHT22;46566;52.700;6.192;2024-01-27T03:16:43;2.80;99.90
60717;DHT22;46566;52.700;6.192;2024-01-27T03:19:10;2.80;99.90
60717;DHT22;46566;52.700;6.192;2024-01-27T03:21:36;2.80;99.90
60717;DHT22;46566;52.700;6.192;2024-01-27T03:24:01;2.80;99.90
60717;DHT22;46566;52.700;6.192;2024-01-27T03:26:27;2.80;99.90
60717;DHT22;46566;52.700;6.192;2024-01-27T03:28:53;2.80;99.90
60717;DHT22;46566;52.700;6.192;2024-01-27T03:31:19;2.80;99.90
60717;DHT22;46566;52.700;6.192;2024-01-27T03:33:44;2.70;99.90
60717;DHT22;46566;52.700;6.192;2024-01-27T03:36:12;2.80;99.90
60717;DHT22;46566;52.700;6.192;2024-01-27T03:38:38;2.70;99.90
60717;DHT22;46566;52.700;6.192;2024-01-27T03:41:04;2.70;99.90
60717;DHT22;46566;52.700;6.192;2024-01-27T03:43:30;2.70;99.90
60717;DHT22;46566;52.700;6.192;2024-01-27T03:45:59;2.60;99.90
60717;DHT22;46566;52.700;6.192;2024-01-27T03:48:26;2.60;99.90
60717;DHT22;46566;52.700;6.192;2024-01-27T03:50:51;2.70;99.90
60717;DHT22;46566;52.700;6.192;2024-01-27T03:53:17;2.70;99.90
60717;DHT22;46566;52.700;6.192;2024-01-27T03:55:43;2.60;99.90
60717;DHT22;46566;52.700;6.192;2024-01-27T03:58:09;2.60;99.90
60717;DHT22;46566;52.700;6.192;2024-01-27T04:00:34;2.70;99.90
60717;DHT22;46566;52.700;6.192;2024-01-27T04:03:00;2.60;99.90
60717;DHT22;46566;52.700;6.192;2024-01-27T04:05:27;2.60;99.90
60717;DHT22;46566;52.700;6.192;2024-01-27T04:07:53;2.60;99.90
60717;DHT22;46566;52.700;6.192;2024-01-27T04:10:19;2.60;99.90
60717;DHT22;46566;52.700;6.192;2024-01-27T04:12:44;2.70;99.90
60717;DHT22;46566;52.700;6.192;2024-01-27T04:15:10;2.70;99.90
60717;DHT22;46566;52.700;6.192;2024-01-27T04:17:42;2.60;99.90
60717;DHT22;46566;52.700;6.192;2024-01-27T04:20:08;2.60;99.90
60717;DHT22;46566;52.700;6.192;2024-01-27T04:22:34;2.60;99.90
60717;DHT22;46566;52.700;6.192;2024-01-27T04:25:01;2.60;99.90
60717;DHT22;46566;52.700;6.192;2024-01-27T04:27:29;2.60;99.90
60717;DHT22;46566;52.700;6.192;2024-01-27T04:29:55;2.70;99.90
60717;DHT22;46566;52.700;6.192;2024-01-27T04:32:22;2.60;99.90
60717;DHT22;46566;52.700;6.192;2024-01-27T04:34:48;2.60;99.90
60717;DHT22;46566;52.700;6.192;2024-01-27T04:37:14;2.70;99.90
60717;DHT22;46566;52.700;6.192;2024-01-27T04:39:39;2.60;99.90
60717;DHT22;46566;52.700;6.192;2024-01-27T04:42:05;2.80;99.90
60717;DHT22;46566;52.700;6.192;2024-01-27T04:44:34;2.80;99.90
60717;DHT22;46566;52.700;6.192;2024-01-27T04:47:00;2.80;99.90
60717;DHT22;46566;52.700;6.192;2024-01-27T04:49:25;2.70;99.90
60717;DHT22;46566;52.700;6.192;2024-01-27T04:51:51;2.80;99.90
60717;DHT22;46566;52.700;6.192;2024-01-27T04:54:17;2.80;99.90
60717;DHT22;46566;52.700;6.192;2024-01-27T04:56:43;2.80;99.90
60717;DHT22;46566;52.700;6.192;2024-01-27T04:59:08;2.70;99.90
60717;DHT22;46566;52.700;6.192;2024-01-27T05:01:34;2.70;99.90
60717;DHT22;46566;52.700;6.192;2024-01-27T05:04:00;2.80;99.90
60717;DHT22;46566;52.700;6.192;2024-01-27T05:06:26;2.80;99.90
60717;DHT22;46566;52.700;6.192;2024-01-27T05:08:51;2.70;99.90
60717;DHT22;46566;52.700;6.192;2024-01-27T05:11:27;2.70;99.90
60717;DHT22;46566;52.700;6.192;2024-01-27T05:13:53;2.70;99.90
60717;DHT22;46566;52.700;6.192;2024-01-27T05:16:18;2.70;99.90
60717;DHT22;46566;52.700;6.192;2024-01-27T05:18:44;2.70;99.90
60717;DHT22;46566;52.700;6.192;2024-01-27T05:21:10;2.60;99.90
60717;DHT22;46566;52.700;6.192;2024-01-27T05:23:35;2.60;99.90
60717;DHT22;46566;52.700;6.192;2024-01-27T05:26:01;2.60;99.90
60717;DHT22;46566;52.700;6.192;2024-01-27T05:28:27;2.60;99.90
60717;DHT22;46566;52.700;6.192;2024-01-27T05:30:53;2.60;99.90
60717;DHT22;46566;52.700;6.192;2024-01-27T05:33:19;2.60;99.90
60717;DHT22;46566;52.700;6.192;2024-01-27T05:35:44;2.60;99.90
60717;DHT22;46566;52.700;6.192;2024-01-27T05:38:10;2.50;99.90
60717;DHT22;46566;52.700;6.192;2024-01-27T05:40:36;2.50;99.90
60717;DHT22;46566;52.700;6.192;2024-01-27T05:43:01;2.40;99.90
60717;DHT22;46566;52.700;6.192;2024-01-27T05:45:27;2.50;99.90
60717;DHT22;46566;52.700;6.192;2024-01-27T05:47:54;2.40;99.90
60717;DHT22;46566;52.700;6.192;2024-01-27T05:50:20;2.30;99.90
60717;DHT22;46566;52.700;6.192;2024-01-27T05:52:45;2.40;99.90
60717;DHT22;46566;52.700;6.192;2024-01-27T05:55:11;2.30;99.90
60717;DHT22;46566;52.700;6.192;2024-01-27T05:57:38;2.40;99.90
60717;DHT22;46566;52.700;6.192;2024-01-27T06:00:05;2.30;99.90
60717;DHT22;46566;52.700;6.192;2024-01-27T06:02:32;2.30;99.90
60717;DHT22;46566;52.700;6.192;2024-01-27T06:04:57;2.30;99.90
60717;DHT22;46566;52.700;6.192;2024-01-27T06:07:24;2.40;99.90
60717;DHT22;46566;52.700;6.192;2024-01-27T06:09:49;2.30;99.90
60717;DHT22;46566;52.700;6.192;2024-01-27T06:12:15;2.30;99.90
60717;DHT22;46566;52.700;6.192;2024-01-27T06:14:41;2.30;99.90
60717;DHT22;46566;52.700;6.192;2024-01-27T06:17:07;2.20;99.90
60717;DHT22;46566;52.700;6.192;2024-01-27T06:19:33;2.10;99.90
60717;DHT22;46566;52.700;6.192;2024-01-27T06:21:58;2.30;99.90
60717;DHT22;46566;52.700;6.192;2024-01-27T06:24:24;2.20;99.90
60717;DHT22;46566;52.700;6.192;2024-01-27T06:26:50;2.30;99.90
60717;DHT22;46566;52.700;6.192;2024-01-27T06:29:16;2.20;99.90
60717;DHT22;46566;52.700;6.192;2024-01-27T06:31:41;2.20;99.90
60717;DHT22;46566;52.700;6.192;2024-01-27T06:34:07;2.20;99.90
60717;DHT22;46566;52.700;6.192;2024-01-27T06:36:33;2.30;99.90
60717;DHT22;46566;52.700;6.192;2024-01-27T06:38:59;2.20;99.90
60717;DHT22;46566;52.700;6.192;2024-01-27T06:41:24;2.30;99.90
60717;DHT22;46566;52.700;6.192;2024-01-27T06:43:50;2.30;99.90
60717;DHT22;46566;52.700;6.192;2024-01-27T06:46:16;2.10;99.90
60717;DHT22;46566;52.700;6.192;2024-01-27T06:48:41;2.20;99.90
60717;DHT22;46566;52.700;6.192;2024-01-27T06:51:07;2.10;99.90
60717;DHT22;46566;52.700;6.192;2024-01-27T06:53:33;2.10;99.90
60717;DHT22;46566;52.700;6.192;2024-01-27T06:55:59;2.30;99.90
60717;DHT22;46566;52.700;6.192;2024-01-27T06:58:24;2.20;99.90
60717;DHT22;46566;52.700;6.192;2024-01-27T07:00:50;2.10;99.90
60717;DHT22;46566;52.700;6.192;2024-01-27T07:03:16;2.20;99.90
60717;DHT22;46566;52.700;6.192;2024-01-27T07:05:41;2.10;99.90
60717;DHT22;46566;52.700;6.192;2024-01-27T07:08:07;2.20;99.90
60717;DHT22;46566;52.700;6.192;2024-01-27T07:10:34;2.10;99.90
60717;DHT22;46566;52.700;6.192;2024-01-27T07:13:00;2.20;99.90
60717;DHT22;46566;52.700;6.192;2024-01-27T07:15:26;2.00;99.90
60717;DHT22;46566;52.700;6.192;2024-01-27T07:17:52;2.00;99.90
60717;DHT22;46566;52.700;6.192;2024-01-27T07:20:19;2.00;99.90
60717;DHT22;46566;52.700;6.192;2024-01-27T07:22:47;2.00;99.90
60717;DHT22;46566;52.700;6.192;2024-01-27T07:25:13;2.10;99.90
60717;DHT22;46566;52.700;6.192;2024-01-27T07:27:39;2.10;99.90
60717;DHT22;46566;52.700;6.192;2024-01-27T07:30:05;2.10;99.90
60717;DHT22;46566;52.700;6.192;2024-01-27T07:32:33;2.20;99.90
60717;DHT22;46566;52.700;6.192;2024-01-27T07:34:59;2.10;99.90
60717;DHT22;46566;52.700;6.192;2024-01-27T07:37:25;2.00;99.90
60717;DHT22;46566;52.700;6.192;2024-01-27T07:39:50;2.10;99.90
60717;DHT22;46566;52.700;6.192;2024-01-27T07:42:16;2.00;99.90
60717;DHT22;46566;52.700;6.192;2024-01-27T07:44:42;2.00;99.90
60717;DHT22;46566;52.700;6.192;2024-01-27T07:47:08;2.10;99.90
60717;DHT22;46566;52.700;6.192;2024-01-27T07:49:36;2.10;99.90
60717;DHT22;46566;52.700;6.192;2024-01-27T07:52:02;2.10;99.90
60717;DHT22;46566;52.700;6.192;2024-01-27T07:54:28;2.10;99.90
60717;DHT22;46566;52.700;6.192;2024-01-27T07:56:54;2.00;99.90
60717;DHT22;46566;52.700;6.192;2024-01-27T07:59:20;2.10;99.90
60717;DHT22;46566;52.700;6.192;2024-01-27T08:01:46;2.20;99.90
60717;DHT22;46566;52.700;6.192;2024-01-27T08:04:12;2.20;99.90
60717;DHT22;46566;52.700;6.192;2024-01-27T08:06:49;2.10;99.90
60717;DHT22;46566;52.700;6.192;2024-01-27T08:09:15;2.30;99.90
60717;DHT22;46566;52.700;6.192;2024-01-27T08:11:42;2.20;99.90
60717;DHT22;46566;52.700;6.192;2024-01-27T08:14:08;2.20;99.90
60717;DHT22;46566;52.700;6.192;2024-01-27T08:16:34;2.20;99.90
60717;DHT22;46566;52.700;6.192;2024-01-27T08:19:00;2.30;99.90
60717;DHT22;46566;52.700;6.192;2024-01-27T08:21:26;2.30;99.90
60717;DHT22;46566;52.700;6.192;2024-01-27T08:23:52;2.30;99.90
60717;DHT22;46566;52.700;6.192;2024-01-27T08:26:18;2.40;99.90
60717;DHT22;46566;52.700;6.192;2024-01-27T08:28:46;2.50;99.90
60717;DHT22;46566;52.700;6.192;2024-01-27T08:31:12;3.10;99.90
60717;DHT22;46566;52.700;6.192;2024-01-27T08:33:38;3.60;99.90
60717;DHT22;46566;52.700;6.192;2024-01-27T08:36:04;4.30;99.90
60717;DHT22;46566;52.700;6.192;2024-01-27T08:38:29;4.90;99.90
60717;DHT22;46566;52.700;6.192;2024-01-27T08:40:55;5.30;99.90
60717;DHT22;46566;52.700;6.192;2024-01-27T08:43:21;5.60;99.90
60717;DHT22;46566;52.700;6.192;2024-01-27T08:45:46;5.80;99.90
60717;DHT22;46566;52.700;6.192;2024-01-27T08:48:12;5.60;99.90
60717;DHT22;46566;52.700;6.192;2024-01-27T08:50:38;5.30;99.90
60717;DHT22;46566;52.700;6.192;2024-01-27T08:53:04;5.00;99.90
60717;DHT22;46566;52.700;6.192;2024-01-27T08:55:29;4.80;99.90
60717;DHT22;46566;52.700;6.192;2024-01-27T08:57:56;4.70;99.90
60717;DHT22;46566;52.700;6.192;2024-01-27T09:00:22;4.60;99.90
60717;DHT22;46566;52.700;6.192;2024-01-27T09:02:48;4.60;99.90
60717;DHT22;46566;52.700;6.192;2024-01-27T09:05:14;4.50;99.90
60717;DHT22;46566;52.700;6.192;2024-01-27T09:07:40;4.50;99.90
60717;DHT22;46566;52.700;6.192;2024-01-27T09:10:06;4.50;99.90
60717;DHT22;46566;52.700;6.192;2024-01-27T09:12:32;4.50;99.90
60717;DHT22;46566;52.700;6.192;2024-01-27T09:14:58;4.60;99.90
60717;DHT22;46566;52.700;6.192;2024-01-27T09:17:24;4.50;99.90
60717;DHT22;46566;52.700;6.192;2024-01-27T09:19:50;4.50;99.90
60717;DHT22;46566;52.700;6.192;2024-01-27T09:22:16;4.60;99.90
60717;DHT22;46566;52.700;6.192;2024-01-27T09:24:42;4.80;99.90
60717;DHT22;46566;52.700;6.192;2024-01-27T09:27:07;4.90;99.90
60717;DHT22;46566;52.700;6.192;2024-01-27T09:29:33;5.00;99.90
60717;DHT22;46566;52.700;6.192;2024-01-27T09:31:59;5.00;99.90
60717;DHT22;46566;52.700;6.192;2024-01-27T09:34:24;5.00;99.90
60717;DHT22;46566;52.700;6.192;2024-01-27T09:36:50;5.10;99.90
60717;DHT22;46566;52.700;6.192;2024-01-27T09:39:16;5.10;99.90
60717;DHT22;46566;52.700;6.192;2024-01-27T09:41:42;5.20;99.90
60717;DHT22;46566;52.700;6.192;2024-01-27T09:44:11;5.20;99.90
60717;DHT22;46566;52.700;6.192;2024-01-27T09:46:38;5.30;99.90
60717;DHT22;46566;52.700;6.192;2024-01-27T09:49:04;5.30;99.90
60717;DHT22;46566;52.700;6.192;2024-01-27T09:51:30;5.50;99.90
60717;DHT22;46566;52.700;6.192;2024-01-27T09:53:56;5.50;99.90
60717;DHT22;46566;52.700;6.192;2024-01-27T09:56:22;5.60;99.90
60717;DHT22;46566;52.700;6.192;2024-01-27T09:58:50;5.70;99.90
60717;DHT22;46566;52.700;6.192;2024-01-27T10:01:16;5.80;99.90
60717;DHT22;46566;52.700;6.192;2024-01-27T10:03:43;5.90;99.90
60717;DHT22;46566;52.700;6.192;2024-01-27T10:06:09;6.00;99.90
60717;DHT22;46566;52.700;6.192;2024-01-27T10:08:36;6.10;99.90
60717;DHT22;46566;52.700;6.192;2024-01-27T10:11:07;6.20;99.90
60717;DHT22;46566;52.700;6.192;2024-01-27T10:13:34;6.30;99.90
60717;DHT22;46566;52.700;6.192;2024-01-27T10:16:03;6.40;99.90
60717;DHT22;46566;52.700;6.192;2024-01-27T10:18:30;6.60;99.90
60717;DHT22;46566;52.700;6.192;2024-01-27T10:20:56;6.70;99.90
60717;DHT22;46566;52.700;6.192;2024-01-27T10:23:22;6.70;99.90
60717;DHT22;46566;52.700;6.192;2024-01-27T10:25:48;6.80;99.90
60717;DHT22;46566;52.700;6.192;2024-01-27T10:28:14;7.00;99.90
60717;DHT22;46566;52.700;6.192;2024-01-27T10:30:40;7.10;99.90
60717;DHT22;46566;52.700;6.192;2024-01-27T10:33:08;7.20;99.90
60717;DHT22;46566;52.700;6.192;2024-01-27T10:35:35;7.30;99.90
60717;DHT22;46566;52.700;6.192;2024-01-27T10:38:01;7.40;99.90
60717;DHT22;46566;52.700;6.192;2024-01-27T10:40:28;7.40;99.90
60717;DHT22;46566;52.700;6.192;2024-01-27T10:43:01;7.40;99.90
60717;DHT22;46566;52.700;6.192;2024-01-27T10:45:36;7.30;99.90
60717;DHT22;46566;52.700;6.192;2024-01-27T10:48:03;7.40;99.90
60717;DHT22;46566;52.700;6.192;2024-01-27T10:50:29;7.50;99.90
60717;DHT22;46566;52.700;6.192;2024-01-27T10:52:58;7.50;99.90
60717;DHT22;46566;52.700;6.192;2024-01-27T10:55:24;7.60;99.90
60717;DHT22;46566;52.700;6.192;2024-01-27T10:57:52;7.60;99.90
60717;DHT22;46566;52.700;6.192;2024-01-27T11:00:20;7.70;99.90
60717;DHT22;46566;52.700;6.192;2024-01-27T11:02:47;7.80;99.90
60717;DHT22;46566;52.700;6.192;2024-01-27T11:05:18;7.80;99.90
60717;DHT22;46566;52.700;6.192;2024-01-27T11:07:46;7.90;99.90
60717;DHT22;46566;52.700;6.192;2024-01-27T11:10:12;7.90;99.90
60717;DHT22;46566;52.700;6.192;2024-01-27T11:12:38;8.00;99.90
60717;DHT22;46566;52.700;6.192;2024-01-27T11:15:06;8.10;99.90
60717;DHT22;46566;52.700;6.192;2024-01-27T11:17:41;8.10;99.90
60717;DHT22;46566;52.700;6.192;2024-01-27T11:20:10;8.30;99.90
60717;DHT22;46566;52.700;6.192;2024-01-27T11:22:37;8.30;99.90
60717;DHT22;46566;52.700;6.192;2024-01-27T11:27:42;8.50;99.90
60717;DHT22;46566;52.700;6.192;2024-01-27T11:30:26;8.60;99.90
60717;DHT22;46566;52.700;6.192;2024-01-27T11:32:56;8.60;99.90
60717;DHT22;46566;52.700;6.192;2024-01-27T11:35:26;8.70;99.90
60717;DHT22;46566;52.700;6.192;2024-01-27T11:37:52;8.80;99.90
60717;DHT22;46566;52.700;6.192;2024-01-27T11:40:18;8.80;99.90
60717;DHT22;46566;52.700;6.192;2024-01-27T11:42:53;8.90;99.90
60717;DHT22;46566;52.700;6.192;2024-01-27T11:45:19;9.10;99.90
60717;DHT22;46566;52.700;6.192;2024-01-27T11:47:45;9.20;99.90
60717;DHT22;46566;52.700;6.192;2024-01-27T11:50:11;9.40;99.90
60717;DHT22;46566;52.700;6.192;2024-01-27T11:52:37;9.70;99.90
60717;DHT22;46566;52.700;6.192;2024-01-27T11:55:04;10.00;99.90
60717;DHT22;46566;52.700;6.192;2024-01-27T11:57:29;10.20;99.90
60717;DHT22;46566;52.700;6.192;2024-01-27T11:59:56;10.30;99.90
60717;DHT22;46566;52.700;6.192;2024-01-27T12:02:22;10.20;99.90
60717;DHT22;46566;52.700;6.192;2024-01-27T12:04:48;10.20;99.90
60717;DHT22;46566;52.700;6.192;2024-01-27T12:07:15;10.20;99.90
60717;DHT22;46566;52.700;6.192;2024-01-27T12:09:44;10.10;99.90
60717;DHT22;46566;52.700;6.192;2024-01-27T12:12:12;10.20;99.90
60717;DHT22;46566;52.700;6.192;2024-01-27T12:14:46;10.30;99.90
60717;DHT22;46566;52.700;6.192;2024-01-27T12:17:12;10.30;99.90
60717;DHT22;46566;52.700;6.192;2024-01-27T12:19:38;10.30;99.90
60717;DHT22;46566;52.700;6.192;2024-01-27T12:22:05;10.30;99.90
60717;DHT22;46566;52.700;6.192;2024-01-27T12:24:44;10.30;99.90
60717;DHT22;46566;52.700;6.192;2024-01-27T12:27:10;10.20;99.90
60717;DHT22;46566;52.700;6.192;2024-01-27T12:29:36;10.20;99.90
60717;DHT22;46566;52.700;6.192;2024-01-27T12:32:02;10.20;99.90
60717;DHT22;46566;52.700;6.192;2024-01-27T12:34:28;10.30;99.90
60717;DHT22;46566;52.700;6.192;2024-01-27T12:36:54;10.30;99.90
60717;DHT22;46566;52.700;6.192;2024-01-27T12:39:20;10.40;99.90
60717;DHT22;46566;52.700;6.192;2024-01-27T12:41:46;10.60;99.90
60717;DHT22;46566;52.700;6.192;2024-01-27T12:44:12;10.60;99.90
60717;DHT22;46566;52.700;6.192;2024-01-27T12:46:38;10.60;99.90
60717;DHT22;46566;52.700;6.192;2024-01-27T12:49:04;10.60;99.90
60717;DHT22;46566;52.700;6.192;2024-01-27T12:51:30;10.60;99.90
60717;DHT22;46566;52.700;6.192;2024-01-27T12:53:56;10.60;99.90
60717;DHT22;46566;52.700;6.192;2024-01-27T12:56:22;10.50;99.90
60717;DHT22;46566;52.700;6.192;2024-01-27T12:58:48;10.40;99.90
60717;DHT22;46566;52.700;6.192;2024-01-27T13:01:14;10.40;99.90
60717;DHT22;46566;52.700;6.192;2024-01-27T13:03:40;10.40;99.90
60717;DHT22;46566;52.700;6.192;2024-01-27T13:06:06;10.40;99.90
60717;DHT22;46566;52.700;6.192;2024-01-27T13:08:31;10.40;99.90
60717;DHT22;46566;52.700;6.192;2024-01-27T13:10:57;10.40;99.90
60717;DHT22;46566;52.700;6.192;2024-01-27T13:13:23;10.50;99.90
60717;DHT22;46566;52.700;6.192;2024-01-27T13:15:49;10.40;99.90
60717;DHT22;46566;52.700;6.192;2024-01-27T13:18:14;10.30;99.90
60717;DHT22;46566;52.700;6.192;2024-01-27T13:20:40;10.30;99.90
60717;DHT22;46566;52.700;6.192;2024-01-27T13:23:06;10.20;99.90
60717;DHT22;46566;52.700;6.192;2024-01-27T13:25:33;10.20;99.90
60717;DHT22;46566;52.700;6.192;2024-01-27T13:27:59;10.00;99.90
60717;DHT22;46566;52.700;6.192;2024-01-27T13:30:27;9.90;99.90
60717;DHT22;46566;52.700;6.192;2024-01-27T13:32:54;9.70;99.90
60717;DHT22;46566;52.700;6.192;2024-01-27T13:35:19;9.60;99.90
60717;DHT22;46566;52.700;6.192;2024-01-27T13:37:46;9.50;99.90
60717;DHT22;46566;52.700;6.192;2024-01-27T13:40:13;9.50;99.90
60717;DHT22;46566;52.700;6.192;2024-01-27T13:42:39;9.40;99.90
60717;DHT22;46566;52.700;6.192;2024-01-27T13:45:05;9.30;99.90
60717;DHT22;46566;52.700;6.192;2024-01-27T13:47:31;9.30;99.90
60717;DHT22;46566;52.700;6.192;2024-01-27T13:49:57;9.20;99.90
60717;DHT22;46566;52.700;6.192;2024-01-27T13:52:23;9.20;99.90
60717;DHT22;46566;52.700;6.192;2024-01-27T13:54:49;9.10;99.90
60717;DHT22;46566;52.700;6.192;2024-01-27T13:57:15;9.00;99.90
60717;DHT22;46566;52.700;6.192;2024-01-27T13:59:41;9.00;99.90
60717;DHT22;46566;52.700;6.192;2024-01-27T14:02:07;8.90;99.90
60717;DHT22;46566;52.700;6.192;2024-01-27T14:04:34;8.80;99.90
60717;DHT22;46566;52.700;6.192;2024-01-27T14:07:00;8.80;99.90
60717;DHT22;46566;52.700;6.192;2024-01-27T14:09:32;8.70;99.90
60717;DHT22;46566;52.700;6.192;2024-01-27T14:11:57;8.70;99.90
60717;DHT22;46566;52.700;6.192;2024-01-27T14:14:23;8.70;99.90
60717;DHT22;46566;52.700;6.192;2024-01-27T14:16:49;8.60;99.90
60717;DHT22;46566;52.700;6.192;2024-01-27T14:19:15;8.60;99.90
60717;DHT22;46566;52.700;6.192;2024-01-27T14:21:44;8.70;99.90
60717;DHT22;46566;52.700;6.192;2024-01-27T14:24:09;8.60;99.90
60717;DHT22;46566;52.700;6.192;2024-01-27T14:26:35;8.60;99.90
60717;DHT22;46566;52.700;6.192;2024-01-27T14:29:02;8.50;99.90
60717;DHT22;46566;52.700;6.192;2024-01-27T14:31:28;8.50;99.90
60717;DHT22;46566;52.700;6.192;2024-01-27T14:33:56;8.50;99.90
60717;DHT22;46566;52.700;6.192;2024-01-27T14:36:22;8.50;99.90
60717;DHT22;46566;52.700;6.192;2024-01-27T14:38:51;8.50;99.90
60717;DHT22;46566;52.700;6.192;2024-01-27T14:41:17;8.40;99.90
60717;DHT22;46566;52.700;6.192;2024-01-27T14:43:42;8.40;99.90
60717;DHT22;46566;52.700;6.192;2024-01-27T14:46:08;8.40;99.90
60717;DHT22;46566;52.700;6.192;2024-01-27T14:48:34;8.30;99.90
60717;DHT22;46566;52.700;6.192;2024-01-27T14:51:01;8.30;99.90
60717;DHT22;46566;52.700;6.192;2024-01-27T14:53:27;8.20;99.90
60717;DHT22;46566;52.700;6.192;2024-01-27T14:55:54;8.20;99.90
60717;DHT22;46566;52.700;6.192;2024-01-27T14:58:21;8.20;99.90
60717;DHT22;46566;52.700;6.192;2024-01-27T15:00:47;8.10;99.90
60717;DHT22;46566;52.700;6.192;2024-01-27T15:03:21;8.00;99.90
60717;DHT22;46566;52.700;6.192;2024-01-27T15:05:48;7.90;99.90
60717;DHT22;46566;52.700;6.192;2024-01-27T15:08:15;7.90;99.90
60717;DHT22;46566;52.700;6.192;2024-01-27T15:10:41;7.80;99.90
60717;DHT22;46566;52.700;6.192;2024-01-27T15:13:09;7.80;99.90
60717;DHT22;46566;52.700;6.192;2024-01-27T15:15:36;7.80;99.90
60717;DHT22;46566;52.700;6.192;2024-01-27T15:18:03;7.80;99.90
60717;DHT22;46566;52.700;6.192;2024-01-27T15:20:29;7.80;99.90
60717;DHT22;46566;52.700;6.192;2024-01-27T15:22:55;7.70;99.90
60717;DHT22;46566;52.700;6.192;2024-01-27T15:25:21;7.70;99.90
60717;DHT22;46566;52.700;6.192;2024-01-27T15:27:47;7.70;99.90
60717;DHT22;46566;52.700;6.192;2024-01-27T15:30:14;7.60;99.90
60717;DHT22;46566;52.700;6.192;2024-01-27T15:32:40;7.60;99.90
60717;DHT22;46566;52.700;6.192;2024-01-27T15:35:06;7.60;99.90
60717;DHT22;46566;52.700;6.192;2024-01-27T15:37:32;7.50;99.90
60717;DHT22;46566;52.700;6.192;2024-01-27T15:39:57;7.50;99.90
60717;DHT22;46566;52.700;6.192;2024-01-27T15:42:23;7.50;99.90